createdAt,value
2018-04-26T00:00:34.225Z,1005.19
2018-04-26T00:01:34.216Z,1005.16
2018-04-26T00:02:34.194Z,1005.20
2018-04-26T00:03:34.202Z,1005.17
2018-04-26T00:04:34.185Z,1005.16
2018-04-26T00:05:34.171Z,1005.16
2018-04-26T00:06:34.164Z,1005.12
2018-04-26T00:07:34.154Z,1005.10
2018-04-26T00:08:34.153Z,1005.11
2018-04-26T00:09:34.139Z,1005.06
2018-04-26T00:10:34.143Z,1005.09
2018-04-26T00:11:34.116Z,1005.08
2018-04-26T00:12:34.157Z,1005.10
2018-04-26T00:13:34.129Z,1005.17
2018-04-26T00:14:34.104Z,1005.03
2018-04-26T00:15:34.116Z,1005.03
2018-04-26T00:16:34.094Z,1005.01
2018-04-26T00:17:34.077Z,1005.00
2018-04-26T00:18:34.047Z,1004.99
2018-04-26T00:19:34.041Z,1005.00
2018-04-26T00:20:34.063Z,1005.01
2018-04-26T00:21:34.033Z,1005.00
2018-04-26T00:22:34.024Z,1004.97
2018-04-26T00:23:34.003Z,1004.94
2018-04-26T00:24:34.008Z,1004.95
2018-04-26T00:25:33.989Z,1005.02
2018-04-26T00:26:33.978Z,1005.02
2018-04-26T00:27:33.980Z,1005.01
2018-04-26T00:28:33.959Z,1004.99
2018-04-26T00:29:33.966Z,1005.06
2018-04-26T00:30:33.948Z,1005.04
2018-04-26T00:31:33.937Z,1005.03
2018-04-26T00:32:33.965Z,1005.06
2018-04-26T00:33:33.926Z,1005.04
2018-04-26T00:34:33.920Z,1005.05
2018-04-26T00:35:33.927Z,1005.03
2018-04-26T00:36:33.896Z,1005.03
2018-04-26T00:37:33.883Z,1005.05
2018-04-26T00:38:33.883Z,1005.05
2018-04-26T00:39:33.880Z,1005.04
2018-04-26T00:40:33.873Z,1004.95
2018-04-26T00:41:33.852Z,1005.04
2018-04-26T00:42:33.842Z,1005.00
2018-04-26T00:43:33.848Z,1005.03
2018-04-26T00:44:33.827Z,1005.03
2018-04-26T00:45:33.819Z,1005.04
2018-04-26T00:46:33.810Z,1005.05
2018-04-26T00:47:33.803Z,1004.99
2018-04-26T00:48:33.804Z,1005.03
2018-04-26T00:49:33.797Z,1005.02
2018-04-26T00:50:33.790Z,1005.06
2018-04-26T00:51:33.767Z,1004.99
2018-04-26T00:52:33.784Z,1005.02
2018-04-26T00:53:33.763Z,1004.97
2018-04-26T00:54:33.758Z,1005.01
2018-04-26T00:55:33.767Z,1004.98
2018-04-26T00:56:33.723Z,1004.93
2018-04-26T00:57:33.734Z,1004.91
2018-04-26T00:58:33.720Z,1004.89
2018-04-26T00:59:33.714Z,1004.93
2018-04-26T01:00:33.696Z,1004.95
2018-04-26T01:01:33.682Z,1004.94
2018-04-26T01:02:33.687Z,1004.89
2018-04-26T01:03:33.681Z,1004.90
2018-04-26T01:04:33.665Z,1005.01
2018-04-26T01:05:33.657Z,1004.97
2018-04-26T01:06:34.500Z,1004.98
2018-04-26T01:07:33.674Z,1004.95
2018-04-26T01:08:33.629Z,1004.91
2018-04-26T01:09:33.619Z,1004.95
2018-04-26T01:10:33.668Z,1004.94
2018-04-26T01:11:33.611Z,1005.00
2018-04-26T01:12:33.604Z,1004.94
2018-04-26T01:13:33.585Z,1004.98
2018-04-26T01:14:33.579Z,1004.93
2018-04-26T01:15:33.568Z,1004.97
2018-04-26T01:16:33.570Z,1004.96
2018-04-26T01:17:33.551Z,1004.90
2018-04-26T01:18:33.554Z,1004.93
2018-04-26T01:19:33.546Z,1004.95
2018-04-26T01:20:33.524Z,1004.93
2018-04-26T01:21:33.519Z,1004.98
2018-04-26T01:22:33.521Z,1004.94
2018-04-26T01:23:33.503Z,1004.94
2018-04-26T01:24:33.495Z,1004.93
2018-04-26T01:25:33.489Z,1004.97
2018-04-26T01:26:33.483Z,1004.97
2018-04-26T01:27:33.470Z,1005.03
2018-04-26T01:28:33.460Z,1004.93
2018-04-26T01:29:33.455Z,1004.94
2018-04-26T01:30:33.445Z,1004.95
2018-04-26T01:31:33.448Z,1004.97
2018-04-26T01:32:33.432Z,1005.00
2018-04-26T01:33:33.420Z,1004.99
2018-04-26T01:34:33.410Z,1005.00
2018-04-26T01:35:33.419Z,1004.99
2018-04-26T01:36:33.394Z,1004.98
2018-04-26T01:37:33.388Z,1005.01
2018-04-26T01:38:33.379Z,1004.99
2018-04-26T01:39:33.382Z,1005.01
2018-04-26T01:40:33.376Z,1005.04
2018-04-26T01:41:33.358Z,1004.98
2018-04-26T01:42:33.347Z,1004.96
2018-04-26T01:43:33.338Z,1005.06
2018-04-26T01:44:33.334Z,1004.98
2018-04-26T01:45:33.379Z,1005.02
2018-04-26T01:46:33.320Z,1005.02
2018-04-26T01:47:33.306Z,1005.05
2018-04-26T01:48:33.297Z,1005.05
2018-04-26T01:49:33.301Z,1005.08
2018-04-26T01:50:33.282Z,1004.99
2018-04-26T01:51:33.285Z,1005.03
2018-04-26T01:52:33.271Z,1005.04
2018-04-26T01:53:33.260Z,1005.04
2018-04-26T01:54:33.249Z,1005.05
2018-04-26T01:55:33.239Z,1005.09
2018-04-26T01:56:33.232Z,1005.16
2018-04-26T01:57:33.224Z,1005.11
2018-04-26T01:58:33.234Z,1005.11
2018-04-26T01:59:33.212Z,1005.17
2018-04-26T02:00:33.221Z,1005.14
2018-04-26T02:01:33.195Z,1005.08
2018-04-26T02:02:33.186Z,1005.15
2018-04-26T02:03:33.178Z,1005.08
2018-04-26T02:04:33.173Z,1005.06
2018-04-26T02:05:33.182Z,1005.05
2018-04-26T02:06:33.153Z,1005.04
2018-04-26T02:07:33.149Z,1005.03
2018-04-26T02:08:33.148Z,1005.05
2018-04-26T02:09:33.143Z,1005.04
2018-04-26T02:10:33.121Z,1005.00
2018-04-26T02:11:33.135Z,1004.98
2018-04-26T02:12:33.107Z,1005.06
2018-04-26T02:13:33.109Z,1005.01
2018-04-26T02:14:33.104Z,1005.07
2018-04-26T02:15:33.083Z,1005.04
2018-04-26T02:16:33.083Z,1005.05
2018-04-26T02:17:33.066Z,1005.08
2018-04-26T02:18:33.069Z,1005.10
2018-04-26T02:19:33.048Z,1005.05
2018-04-26T02:20:33.100Z,1005.03
2018-04-26T02:21:33.061Z,1005.07
2018-04-26T02:22:33.020Z,1005.02
2018-04-26T02:23:33.025Z,1005.09
2018-04-26T02:24:33.006Z,1005.07
2018-04-26T02:25:32.994Z,1005.04
2018-04-26T02:26:33.003Z,1005.04
2018-04-26T02:27:32.988Z,1005.02
2018-04-26T02:28:32.988Z,1004.99
2018-04-26T02:29:32.974Z,1005.03
2018-04-26T02:30:32.972Z,1004.99
2018-04-26T02:31:32.949Z,1005.03
2018-04-26T02:32:32.971Z,1005.04
2018-04-26T02:33:32.926Z,1005.05
2018-04-26T02:34:32.935Z,1005.05
2018-04-26T02:35:32.923Z,1005.06
2018-04-26T02:36:32.904Z,1005.05
2018-04-26T02:37:32.905Z,1005.07
2018-04-26T02:38:32.883Z,1005.06
2018-04-26T02:39:32.889Z,1005.04
2018-04-26T02:40:32.880Z,1005.04
2018-04-26T02:41:32.876Z,1005.05
2018-04-26T02:42:32.856Z,1005.08
2018-04-26T02:43:32.842Z,1005.06
2018-04-26T02:44:32.846Z,1005.05
2018-04-26T02:45:32.828Z,1004.98
2018-04-26T02:46:32.822Z,1005.03
2018-04-26T02:47:32.815Z,1005.04
2018-04-26T02:48:32.800Z,1005.07
2018-04-26T02:49:32.795Z,1005.07
2018-04-26T02:50:32.785Z,1005.00
2018-04-26T02:51:32.779Z,1005.01
2018-04-26T02:52:32.769Z,1005.01
2018-04-26T02:53:32.772Z,1005.02
2018-04-26T02:54:32.756Z,1005.01
2018-04-26T02:55:32.747Z,1004.98
2018-04-26T02:56:32.736Z,1004.93
2018-04-26T02:57:32.744Z,1004.99
2018-04-26T02:58:32.724Z,1004.98
2018-04-26T02:59:32.719Z,1004.96
2018-04-26T03:00:32.714Z,1004.97
2018-04-26T03:01:32.691Z,1004.93
2018-04-26T03:02:32.699Z,1004.98
2018-04-26T03:03:32.677Z,1004.96
2018-04-26T03:04:32.667Z,1005.00
2018-04-26T03:05:32.679Z,1005.03
2018-04-26T03:06:32.661Z,1004.96
2018-04-26T03:07:32.653Z,1004.96
2018-04-26T03:08:32.637Z,1004.99
2018-04-26T03:09:32.624Z,1004.99
2018-04-26T03:10:32.613Z,1005.01
2018-04-26T03:11:32.619Z,1005.05
2018-04-26T03:12:32.598Z,1005.04
2018-04-26T03:13:32.601Z,1005.01
2018-04-26T03:14:32.597Z,1005.06
2018-04-26T03:15:32.576Z,1005.00
2018-04-26T03:16:32.577Z,1005.06
2018-04-26T03:17:32.577Z,1005.02
2018-04-26T03:18:32.559Z,1005.02
2018-04-26T03:19:32.551Z,1005.05
2018-04-26T03:20:32.543Z,1005.03
2018-04-26T03:21:32.521Z,1005.06
2018-04-26T03:22:32.512Z,1005.05
2018-04-26T03:23:32.507Z,1004.95
2018-04-26T03:24:32.498Z,1005.00
2018-04-26T03:25:32.544Z,1004.98
2018-04-26T03:26:32.494Z,1005.02
2018-04-26T03:27:32.487Z,1004.99
2018-04-26T03:28:32.488Z,1005.01
2018-04-26T03:29:32.453Z,1005.08
2018-04-26T03:30:32.446Z,1004.99
2018-04-26T03:31:32.440Z,1005.03
2018-04-26T03:32:32.427Z,1005.01
2018-04-26T03:33:32.428Z,1005.05
2018-04-26T03:34:32.417Z,1005.04
2018-04-26T03:35:32.435Z,1005.07
2018-04-26T03:36:32.407Z,1005.08
2018-04-26T03:37:32.386Z,1005.04
2018-04-26T03:38:32.386Z,1005.07
2018-04-26T03:39:32.369Z,1005.09
2018-04-26T03:40:32.372Z,1005.09
2018-04-26T03:41:32.371Z,1005.09
2018-04-26T03:42:32.344Z,1005.05
2018-04-26T03:43:32.333Z,1005.07
2018-04-26T03:44:32.337Z,1005.07
2018-04-26T03:45:32.320Z,1005.06
2018-04-26T03:46:32.311Z,1005.07
2018-04-26T03:47:32.301Z,1005.01
2018-04-26T03:48:32.293Z,1004.99
2018-04-26T03:49:32.284Z,1004.98
2018-04-26T03:50:32.276Z,1004.99
2018-04-26T03:51:32.266Z,1004.97
2018-04-26T03:52:32.258Z,1004.95
2018-04-26T03:53:32.261Z,1004.99
2018-04-26T03:54:32.246Z,1005.04
2018-04-26T03:55:32.233Z,1004.97
2018-04-26T03:56:32.239Z,1004.97
2018-04-26T03:57:32.218Z,1004.99
2018-04-26T03:58:32.221Z,1005.02
2018-04-26T03:59:32.200Z,1005.03
2018-04-26T04:00:32.189Z,1004.97
2018-04-26T04:01:32.246Z,1004.99
2018-04-26T04:02:32.175Z,1005.01
2018-04-26T04:03:32.174Z,1004.97
2018-04-26T04:04:32.156Z,1004.97
2018-04-26T04:05:32.152Z,1005.04
2018-04-26T04:06:32.144Z,1004.97
2018-04-26T04:07:32.128Z,1005.01
2018-04-26T04:08:32.121Z,1005.06
2018-04-26T04:09:32.114Z,1005.02
2018-04-26T04:10:32.106Z,1004.98
2018-04-26T04:11:32.095Z,1005.07
2018-04-26T04:12:32.087Z,1005.15
2018-04-26T04:13:32.076Z,1005.18
2018-04-26T04:14:32.072Z,1005.30
2018-04-26T04:15:32.061Z,1005.41
2018-04-26T04:16:32.052Z,1005.41
2018-04-26T04:17:32.053Z,1005.51
2018-04-26T04:18:32.036Z,1005.50
2018-04-26T04:19:32.029Z,1005.34
2018-04-26T04:20:32.028Z,1005.36
2018-04-26T04:21:32.011Z,1005.34
2018-04-26T04:22:31.999Z,1005.35
2018-04-26T04:23:31.992Z,1005.31
2018-04-26T04:24:31.996Z,1005.37
2018-04-26T04:25:31.985Z,1005.39
2018-04-26T04:26:31.977Z,1005.38
2018-04-26T04:27:31.960Z,1005.33
2018-04-26T04:28:31.950Z,1005.33
2018-04-26T04:29:31.941Z,1005.31
2018-04-26T04:30:31.929Z,1005.37
2018-04-26T04:31:31.919Z,1005.36
2018-04-26T04:32:31.915Z,1005.35
2018-04-26T04:33:31.903Z,1005.36
2018-04-26T04:34:31.896Z,1005.36
2018-04-26T04:35:31.900Z,1005.33
2018-04-26T04:36:31.888Z,1005.38
2018-04-26T04:37:31.875Z,1005.39
2018-04-26T04:38:31.862Z,1005.38
2018-04-26T04:39:31.864Z,1005.35
2018-04-26T04:40:31.856Z,1005.41
2018-04-26T04:41:31.835Z,1005.38
2018-04-26T04:42:31.842Z,1005.41
2018-04-26T04:43:31.823Z,1005.37
2018-04-26T04:44:31.808Z,1005.44
2018-04-26T04:45:31.801Z,1005.44
2018-04-26T04:46:31.800Z,1005.42
2018-04-26T04:47:31.786Z,1005.45
2018-04-26T04:48:31.774Z,1005.39
2018-04-26T04:49:31.766Z,1005.40
2018-04-26T04:50:31.758Z,1005.41
2018-04-26T04:51:31.752Z,1005.41
2018-04-26T04:52:31.750Z,1005.44
2018-04-26T04:53:31.740Z,1005.47
2018-04-26T04:54:31.721Z,1005.50
2018-04-26T04:55:31.713Z,1005.48
2018-04-26T04:56:31.704Z,1005.50
2018-04-26T04:57:31.708Z,1005.52
2018-04-26T04:58:31.700Z,1005.52
2018-04-26T04:59:31.679Z,1005.56
2018-04-26T05:00:31.685Z,1005.54
2018-04-26T05:01:31.661Z,1005.58
2018-04-26T05:02:31.660Z,1005.55
2018-04-26T05:03:31.647Z,1005.60
2018-04-26T05:04:31.643Z,1005.64
2018-04-26T05:05:31.624Z,1005.66
2018-04-26T05:06:31.626Z,1005.62
2018-04-26T05:07:31.603Z,1005.69
2018-04-26T05:08:31.599Z,1005.70
2018-04-26T05:09:31.616Z,1005.70
2018-04-26T05:10:31.579Z,1005.71
2018-04-26T05:11:31.578Z,1005.72
2018-04-26T05:12:31.561Z,1005.75
2018-04-26T05:13:31.568Z,1005.74
2018-04-26T05:14:31.561Z,1005.79
2018-04-26T05:15:31.537Z,1005.82
2018-04-26T05:16:31.539Z,1005.81
2018-04-26T05:17:31.536Z,1005.82
2018-04-26T05:18:31.522Z,1005.79
2018-04-26T05:19:31.503Z,1005.87
2018-04-26T05:20:31.492Z,1005.85
2018-04-26T05:21:31.493Z,1005.88
2018-04-26T05:22:31.492Z,1005.89
2018-04-26T05:23:31.471Z,1005.94
2018-04-26T05:24:31.470Z,1005.94
2018-04-26T05:25:31.470Z,1005.90
2018-04-26T05:26:31.454Z,1005.95
2018-04-26T05:27:31.436Z,1005.96
2018-04-26T05:28:31.436Z,1005.96
2018-04-26T05:29:31.420Z,1005.99
2018-04-26T05:30:31.416Z,1006.01
2018-04-26T05:31:31.393Z,1006.04
2018-04-26T05:32:31.386Z,1006.06
2018-04-26T05:33:31.379Z,1006.02
2018-04-26T05:34:31.370Z,1006.13
2018-04-26T05:35:31.359Z,1006.08
2018-04-26T05:36:31.360Z,1006.07
2018-04-26T05:37:31.418Z,1006.04
2018-04-26T05:38:31.343Z,1006.09
2018-04-26T05:39:31.333Z,1006.10
2018-04-26T05:40:31.396Z,1006.08
2018-04-26T05:41:31.310Z,1006.13
2018-04-26T05:42:31.300Z,1006.17
2018-04-26T05:43:31.292Z,1006.22
2018-04-26T05:44:31.292Z,1006.15
2018-04-26T05:45:31.269Z,1006.22
2018-04-26T05:46:31.272Z,1006.21
2018-04-26T05:47:31.255Z,1006.20
2018-04-26T05:48:31.256Z,1006.27
2018-04-26T05:49:31.239Z,1006.21
2018-04-26T05:50:31.230Z,1006.25
2018-04-26T05:51:31.234Z,1006.27
2018-04-26T05:52:31.213Z,1006.35
2018-04-26T05:53:31.209Z,1006.26
2018-04-26T05:54:31.197Z,1006.30
2018-04-26T05:55:31.200Z,1006.22
2018-04-26T05:56:31.182Z,1006.30
2018-04-26T05:57:31.176Z,1006.37
2018-04-26T05:58:31.166Z,1006.33
2018-04-26T05:59:31.157Z,1006.39
2018-04-26T06:00:31.164Z,1006.35
2018-04-26T06:01:31.141Z,1006.33
2018-04-26T06:02:31.136Z,1006.36
2018-04-26T06:03:31.161Z,1006.37
2018-04-26T06:04:31.115Z,1006.32
2018-04-26T06:05:31.119Z,1006.37
2018-04-26T06:06:31.110Z,1006.34
2018-04-26T06:07:31.091Z,1006.37
2018-04-26T06:08:31.085Z,1006.36
2018-04-26T06:09:31.080Z,1006.30
2018-04-26T06:10:31.076Z,1006.32
2018-04-26T06:11:31.060Z,1006.41
2018-04-26T06:12:31.053Z,1006.44
2018-04-26T06:13:31.050Z,1006.42
2018-04-26T06:14:31.037Z,1006.45
2018-04-26T06:15:31.040Z,1006.50
2018-04-26T06:16:31.020Z,1006.45
2018-04-26T06:17:31.024Z,1006.45
2018-04-26T06:18:31.017Z,1006.51
2018-04-26T06:19:31.002Z,1006.54
2018-04-26T06:20:30.990Z,1006.52
2018-04-26T06:21:30.985Z,1006.58
2018-04-26T06:22:30.982Z,1006.52
2018-04-26T06:23:30.965Z,1006.56
2018-04-26T06:24:30.973Z,1006.56
2018-04-26T06:25:31.013Z,1006.60
2018-04-26T06:26:30.946Z,1006.63
2018-04-26T06:27:30.942Z,1006.67
2018-04-26T06:28:30.923Z,1006.61
2018-04-26T06:29:30.928Z,1006.65
2018-04-26T06:30:30.935Z,1006.70
2018-04-26T06:31:30.903Z,1006.69
2018-04-26T06:32:30.946Z,1006.70
2018-04-26T06:33:30.892Z,1006.70
2018-04-26T06:34:30.878Z,1006.73
2018-04-26T06:35:30.872Z,1006.62
2018-04-26T06:36:30.860Z,1006.63
2018-04-26T06:37:30.854Z,1006.69
2018-04-26T06:38:30.857Z,1006.71
2018-04-26T06:39:30.850Z,1006.69
2018-04-26T06:40:30.840Z,1006.61
2018-04-26T06:41:30.826Z,1006.56
2018-04-26T06:42:30.813Z,1006.75
2018-04-26T06:43:30.821Z,1006.68
2018-04-26T06:44:30.799Z,1006.71
2018-04-26T06:45:30.809Z,1006.68
2018-04-26T06:46:30.792Z,1006.70
2018-04-26T06:47:30.785Z,1006.74
2018-04-26T06:48:30.766Z,1006.71
2018-04-26T06:49:30.764Z,1006.73
2018-04-26T06:50:30.751Z,1006.78
2018-04-26T06:51:30.744Z,1006.81
2018-04-26T06:52:30.741Z,1006.86
2018-04-26T06:53:30.814Z,1006.88
2018-04-26T06:54:30.731Z,1006.93
2018-04-26T06:55:30.718Z,1006.91
2018-04-26T06:56:30.718Z,1006.86
2018-04-26T06:57:30.700Z,1006.92
2018-04-26T06:58:30.705Z,1007.01
2018-04-26T06:59:30.682Z,1006.99
2018-04-26T07:00:32.822Z,1007.03
2018-04-26T07:01:30.669Z,1007.02
2018-04-26T07:02:30.663Z,1007.02
2018-04-26T07:03:30.654Z,1006.94
2018-04-26T07:04:30.657Z,1007.04
2018-04-26T07:05:30.638Z,1007.04
2018-04-26T07:06:30.640Z,1006.98
2018-04-26T07:07:30.623Z,1007.03
2018-04-26T07:08:30.613Z,1007.00
2018-04-26T07:09:30.612Z,1006.98
2018-04-26T07:10:30.611Z,1007.02
2018-04-26T07:11:30.597Z,1006.98
2018-04-26T07:12:30.603Z,1007.05
2018-04-26T07:13:30.578Z,1007.07
2018-04-26T07:14:30.571Z,1007.09
2018-04-26T07:15:30.566Z,1007.05
2018-04-26T07:16:30.564Z,1007.05
2018-04-26T07:17:30.564Z,1007.13
2018-04-26T07:18:30.540Z,1007.14
2018-04-26T07:19:30.533Z,1007.20
2018-04-26T07:20:30.528Z,1007.20
2018-04-26T07:21:30.519Z,1007.21
2018-04-26T07:22:30.510Z,1007.28
2018-04-26T07:23:30.505Z,1007.26
2018-04-26T07:24:30.499Z,1007.28
2018-04-26T07:25:30.506Z,1007.28
2018-04-26T07:26:30.485Z,1007.26
2018-04-26T07:27:30.473Z,1007.24
2018-04-26T07:28:30.469Z,1007.29
2018-04-26T07:29:30.476Z,1007.33
2018-04-26T07:30:30.456Z,1007.33
2018-04-26T07:31:30.459Z,1007.39
2018-04-26T07:32:30.452Z,1007.36
2018-04-26T07:33:30.434Z,1007.40
2018-04-26T07:34:30.429Z,1007.41
2018-04-26T07:35:30.420Z,1007.40
2018-04-26T07:36:30.416Z,1007.38
2018-04-26T07:37:30.409Z,1007.38
2018-04-26T07:38:30.710Z,1007.41
2018-04-26T07:39:30.395Z,1007.37
2018-04-26T07:40:30.392Z,1007.36
2018-04-26T07:41:30.393Z,1007.38
2018-04-26T07:42:30.385Z,1007.44
2018-04-26T07:43:30.368Z,1007.37
2018-04-26T07:44:30.363Z,1007.40
2018-04-26T07:45:30.359Z,1007.41
2018-04-26T07:46:30.350Z,1007.47
2018-04-26T07:47:30.342Z,1007.42
2018-04-26T07:48:30.337Z,1007.43
2018-04-26T07:49:30.344Z,1007.45
2018-04-26T07:50:30.322Z,1007.44
2018-04-26T07:51:30.336Z,1007.48
2018-04-26T07:52:30.318Z,1007.50
2018-04-26T07:53:30.300Z,1007.55
2018-04-26T07:54:30.291Z,1007.45
2018-04-26T07:55:30.305Z,1007.50
2018-04-26T07:56:30.276Z,1007.50
2018-04-26T07:57:30.278Z,1007.52
2018-04-26T07:58:30.264Z,1007.52
2018-04-26T07:59:30.272Z,1007.55
2018-04-26T08:00:30.252Z,1007.49
2018-04-26T08:01:30.306Z,1007.52
2018-04-26T08:02:30.240Z,1007.54
2018-04-26T08:03:30.234Z,1007.59
2018-04-26T08:04:30.229Z,1007.51
2018-04-26T08:05:30.225Z,1007.47
2018-04-26T08:06:30.213Z,1007.63
2018-04-26T08:07:30.836Z,1007.69
2018-04-26T08:08:30.228Z,1007.62
2018-04-26T08:09:30.196Z,1007.66
2018-04-26T08:10:30.194Z,1007.70
2018-04-26T08:11:30.185Z,1007.70
2018-04-26T08:12:30.178Z,1007.72
2018-04-26T08:13:30.172Z,1007.73
2018-04-26T08:14:30.171Z,1007.71
2018-04-26T08:15:30.163Z,1007.76
2018-04-26T08:16:30.169Z,1007.68
2018-04-26T08:17:30.164Z,1007.73
2018-04-26T08:18:30.145Z,1007.69
2018-04-26T08:19:30.143Z,1007.72
2018-04-26T08:20:30.144Z,1007.73
2018-04-26T08:21:30.192Z,1007.74
2018-04-26T08:22:30.239Z,1007.76
2018-04-26T08:23:30.142Z,1007.76
2018-04-26T08:24:30.120Z,1007.82
2018-04-26T08:25:30.114Z,1007.84
2018-04-26T08:26:30.121Z,1007.72
2018-04-26T08:27:30.102Z,1007.84
2018-04-26T08:28:30.099Z,1007.82
2018-04-26T08:29:30.292Z,1007.79
2018-04-26T08:30:30.168Z,1007.87
2018-04-26T08:31:30.098Z,1007.91
2018-04-26T08:32:30.118Z,1007.90
2018-04-26T08:33:30.090Z,1007.89
2018-04-26T08:34:30.085Z,1007.90
2018-04-26T08:35:30.081Z,1007.95
2018-04-26T08:36:30.146Z,1007.86
2018-04-26T08:37:30.077Z,1007.94
2018-04-26T08:38:30.067Z,1007.93
2018-04-26T08:39:30.056Z,1007.95
2018-04-26T08:40:30.097Z,1007.85
2018-04-26T08:41:30.048Z,1007.94
2018-04-26T08:42:30.080Z,1007.89
2018-04-26T08:43:31.614Z,1007.95
2018-04-26T08:44:30.041Z,1007.95
2018-04-26T08:45:30.092Z,1007.96
2018-04-26T08:46:30.051Z,1007.99
2018-04-26T08:47:30.031Z,1007.99
2018-04-26T08:48:30.027Z,1007.98
2018-04-26T08:49:30.025Z,1007.98
2018-04-26T08:50:30.022Z,1007.96
2018-04-26T08:51:30.021Z,1007.96
2018-04-26T08:52:30.017Z,1007.98
2018-04-26T08:53:30.017Z,1007.97
2018-04-26T08:54:30.027Z,1007.96
2018-04-26T08:55:30.009Z,1007.99
2018-04-26T08:56:30.019Z,1007.96
2018-04-26T08:57:30.023Z,1007.96
2018-04-26T08:58:30.028Z,1007.98
2018-04-26T08:59:30.012Z,1007.93
2018-04-26T09:00:29.998Z,1007.89
2018-04-26T09:01:29.995Z,1007.88
2018-04-26T09:02:29.989Z,1007.88
2018-04-26T09:03:29.988Z,1007.95
2018-04-26T09:04:29.997Z,1008.01
2018-04-26T09:05:29.985Z,1007.97
2018-04-26T09:06:29.993Z,1008.03
2018-04-26T09:07:29.984Z,1008.04
2018-04-26T09:08:29.980Z,1008.08
2018-04-26T09:09:29.986Z,1008.06
2018-04-26T09:10:29.970Z,1008.06
2018-04-26T09:11:29.969Z,1008.06
2018-04-26T09:12:29.967Z,1008.04
2018-04-26T09:13:29.990Z,1008.11
2018-04-26T09:14:29.973Z,1008.10
2018-04-26T09:15:29.956Z,1008.05
2018-04-26T09:16:29.967Z,1008.13
2018-04-26T09:17:29.953Z,1008.16
2018-04-26T09:18:29.951Z,1008.24
2018-04-26T09:19:29.944Z,1008.19
2018-04-26T09:20:29.942Z,1008.32
2018-04-26T09:21:29.943Z,1008.24
2018-04-26T09:22:29.936Z,1008.32
2018-04-26T09:23:29.941Z,1008.28
2018-04-26T09:24:29.939Z,1008.33
2018-04-26T09:25:29.957Z,1008.31
2018-04-26T09:26:29.917Z,1008.30
2018-04-26T09:27:29.919Z,1008.37
2018-04-26T09:28:29.926Z,1008.36
2018-04-26T09:29:29.924Z,1008.32
2018-04-26T09:30:29.901Z,1008.38
2018-04-26T09:31:29.908Z,1008.33
2018-04-26T09:32:29.902Z,1008.35
2018-04-26T09:33:29.892Z,1008.26
2018-04-26T09:34:29.891Z,1008.39
2018-04-26T09:35:29.877Z,1008.35
2018-04-26T09:36:29.883Z,1008.36
2018-04-26T09:37:29.887Z,1008.38
2018-04-26T09:38:29.861Z,1008.39
2018-04-26T09:39:29.866Z,1008.42
2018-04-26T09:40:29.852Z,1008.40
2018-04-26T09:41:29.852Z,1008.45
2018-04-26T09:42:29.855Z,1008.40
2018-04-26T09:43:29.866Z,1008.38
2018-04-26T09:44:29.851Z,1008.46
2018-04-26T09:45:29.844Z,1008.32
2018-04-26T09:46:29.845Z,1008.40
2018-04-26T09:47:29.838Z,1008.36
2018-04-26T09:48:29.829Z,1008.30
2018-04-26T09:49:29.823Z,1008.29
2018-04-26T09:50:29.831Z,1008.28
2018-04-26T09:51:29.819Z,1008.22
2018-04-26T09:52:29.830Z,1008.29
2018-04-26T09:53:29.816Z,1008.32
2018-04-26T09:54:29.829Z,1008.31
2018-04-26T09:55:29.899Z,1008.39
2018-04-26T09:56:29.829Z,1008.30
2018-04-26T09:57:29.816Z,1008.29
2018-04-26T09:58:29.870Z,1008.31
2018-04-26T09:59:29.818Z,1008.27
2018-04-26T10:00:29.830Z,1008.28
2018-04-26T10:01:29.829Z,1008.36
2018-04-26T10:02:29.832Z,1008.38
2018-04-26T10:03:29.824Z,1008.25
2018-04-26T10:04:29.826Z,1008.36
2018-04-26T10:05:29.837Z,1008.29
2018-04-26T10:06:29.825Z,1008.35
2018-04-26T10:07:29.827Z,1008.43
2018-04-26T10:08:30.620Z,1008.37
2018-04-26T10:09:29.839Z,1008.44
2018-04-26T10:10:29.836Z,1008.37
2018-04-26T10:11:29.840Z,1008.33
2018-04-26T10:12:30.634Z,1008.31
2018-04-26T10:13:29.848Z,1008.26
2018-04-26T10:14:29.861Z,1008.37
2018-04-26T10:15:29.861Z,1008.27
2018-04-26T10:16:29.857Z,1008.36
2018-04-26T10:17:29.867Z,1008.33
2018-04-26T10:18:29.861Z,1008.32
2018-04-26T10:19:29.866Z,1008.33
2018-04-26T10:20:29.887Z,1008.31
2018-04-26T10:21:29.885Z,1008.51
2018-04-26T10:22:29.887Z,1008.27
2018-04-26T10:23:29.874Z,1008.22
2018-04-26T10:24:29.874Z,1008.35
2018-04-26T10:25:29.884Z,1008.31
2018-04-26T10:26:29.881Z,1008.42
2018-04-26T10:27:29.874Z,1008.38
2018-04-26T10:28:29.874Z,1008.48
2018-04-26T10:29:29.885Z,1008.50
2018-04-26T10:30:29.917Z,1008.46
2018-04-26T10:31:29.884Z,1008.53
2018-04-26T10:32:29.886Z,1008.45
2018-04-26T10:33:29.872Z,1008.45
2018-04-26T10:34:29.924Z,1008.46
2018-04-26T10:35:29.934Z,1008.44
2018-04-26T10:36:29.884Z,1008.41
2018-04-26T10:37:29.887Z,1008.40
2018-04-26T10:38:29.870Z,1008.42
2018-04-26T10:39:29.875Z,1008.45
2018-04-26T10:40:29.884Z,1008.43
2018-04-26T10:41:29.875Z,1008.41
2018-04-26T10:42:29.885Z,1008.44
2018-04-26T10:43:29.874Z,1008.44
2018-04-26T10:44:29.876Z,1008.39
2018-04-26T10:45:29.879Z,1008.38
2018-04-26T10:46:29.894Z,1008.39
2018-04-26T10:47:29.887Z,1008.25
2018-04-26T10:48:29.893Z,1008.33
2018-04-26T10:49:29.895Z,1008.39
2018-04-26T10:50:29.885Z,1008.46
2018-04-26T10:51:29.891Z,1008.35
2018-04-26T10:52:29.890Z,1008.37
2018-04-26T10:53:29.902Z,1008.33
2018-04-26T10:54:29.902Z,1008.36
2018-04-26T10:55:29.908Z,1008.42
2018-04-26T10:56:29.900Z,1008.38
2018-04-26T10:57:29.913Z,1008.55
2018-04-26T10:58:29.905Z,1008.45
2018-04-26T10:59:29.923Z,1008.48
2018-04-26T11:00:29.907Z,1008.37
2018-04-26T11:01:29.923Z,1008.42
2018-04-26T11:02:29.913Z,1008.43
2018-04-26T11:03:29.925Z,1008.53
2018-04-26T11:04:29.930Z,1008.44
2018-04-26T11:05:29.921Z,1008.56
2018-04-26T11:06:29.922Z,1008.51
2018-04-26T11:07:29.929Z,1008.63
2018-04-26T11:08:29.926Z,1008.60
2018-04-26T11:09:29.932Z,1008.50
2018-04-26T11:10:29.935Z,1008.56
2018-04-26T11:11:30.005Z,1008.56
2018-04-26T11:12:29.937Z,1008.54
2018-04-26T11:13:29.953Z,1008.52
2018-04-26T11:14:29.938Z,1008.61
2018-04-26T11:15:30.002Z,1008.63
2018-04-26T11:16:29.954Z,1008.70
2018-04-26T11:17:29.947Z,1008.65
2018-04-26T11:18:29.945Z,1008.37
2018-04-26T11:19:30.027Z,1008.60
2018-04-26T11:20:29.950Z,1008.69
2018-04-26T11:21:29.968Z,1008.79
2018-04-26T11:22:29.947Z,1008.77
2018-04-26T11:23:29.952Z,1008.78
2018-04-26T11:24:30.038Z,1008.77
2018-04-26T11:25:29.947Z,1008.80
2018-04-26T11:26:29.948Z,1008.82
2018-04-26T11:27:29.948Z,1008.75
2018-04-26T11:28:29.970Z,1008.70
2018-04-26T11:29:29.950Z,1008.80
2018-04-26T11:30:29.948Z,1008.79
2018-04-26T11:31:29.968Z,1008.71
2018-04-26T11:32:29.955Z,1008.79
2018-04-26T11:33:29.967Z,1008.74
2018-04-26T11:34:29.955Z,1008.71
2018-04-26T11:35:29.960Z,1008.58
2018-04-26T11:36:29.962Z,1008.69
2018-04-26T11:37:29.974Z,1008.63
2018-04-26T11:38:29.981Z,1008.61
2018-04-26T11:39:30.678Z,1008.51
2018-04-26T11:40:29.982Z,1008.63
2018-04-26T11:41:29.977Z,1008.62
2018-04-26T11:42:29.975Z,1008.61
2018-04-26T11:43:29.978Z,1008.67
2018-04-26T11:44:29.979Z,1008.70
2018-04-26T11:45:29.997Z,1008.55
2018-04-26T11:46:29.999Z,1008.54
2018-04-26T11:47:29.992Z,1008.58
2018-04-26T11:48:29.986Z,1008.54
2018-04-26T11:49:29.992Z,1008.71
2018-04-26T11:50:29.992Z,1008.73
2018-04-26T11:51:29.998Z,1008.76
2018-04-26T11:52:30.009Z,1008.63
2018-04-26T11:53:30.002Z,1008.68
2018-04-26T11:54:30.011Z,1008.54
2018-04-26T11:55:30.020Z,1008.59
2018-04-26T11:56:30.008Z,1008.57
2018-04-26T11:57:30.031Z,1008.55
2018-04-26T11:58:30.013Z,1008.63
2018-04-26T11:59:30.011Z,1008.67
2018-04-26T12:00:30.015Z,1008.72
2018-04-26T12:01:30.025Z,1008.76
2018-04-26T12:02:30.098Z,1008.89
2018-04-26T12:03:30.023Z,1008.88
2018-04-26T12:04:30.022Z,1008.91
2018-04-26T12:05:30.011Z,1008.96